This is the latest recevied weather packets stored in our database for station/object AD0YN. If no packets are shown the sender has not sent any weather packets the latest 10 day(s).
| Time | Temp. | Humidity | Pressure | Rain* | Wind** | Luminosity | Snow |
|---|---|---|---|---|---|---|---|
| 1778190822 | 19.44° C | 43% | 1011.1 hPa | 0 mm | - | 632 W/m² | - |
| 1778190520 | 19.44° C | 42% | 1011.1 hPa | 0 mm | - | 218 W/m² | - |
| 1778190218 | 20° C | 40% | 1011 hPa | 0 mm | - | 184 W/m² | - |
| 1778189918 | 20° C | 40% | 1011.1 hPa | 0 mm | - | 636 W/m² | - |
| 1778189615 | 20° C | 40% | 1011.1 hPa | 0 mm | - | 674 W/m² | - |
| 1778189311 | 20° C | 40% | 1010.9 hPa | 0 mm | - | 488 W/m² | - |
| 1778189007 | 20° C | 41% | 1011.2 hPa | 0 mm | - | 693 W/m² | - |
| 1778188704 | 20° C | 40% | 1011.1 hPa | 0 mm | - | 716 W/m² | - |
| 1778188401 | 20° C | 43% | 1011.3 hPa | 0 mm | - | 729 W/m² | - |
| 1778188098 | 20° C | 42% | 1011.3 hPa | 0 mm | - | 753 W/m² | - |
| 1778187795 | 20° C | 42% | 1011.2 hPa | 0 mm | - | 787 W/m² | - |
| 1778187491 | 18.89° C | 44% | 1011.2 hPa | 0 mm | - | 892 W/m² | - |
| 1778187189 | 20° C | 41% | 1011.4 hPa | 0 mm | - | 192 W/m² | - |
| 1778186884 | 19.44° C | 42% | 1011.3 hPa | 0 mm | - | 868 W/m² | - |
| 1778186582 | 19.44° C | 42% | 1011.4 hPa | 0 mm | - | 205 W/m² | - |
| 1778186280 | 19.44° C | 44% | 1011.5 hPa | 0 mm | - | 868 W/m² | - |
| 1778185977 | 18.89° C | 47% | 1011.7 hPa | 0 mm | - | 331 W/m² | - |
| 1778185673 | 19.44° C | 42% | 1011.8 hPa | 0 mm | - | 188 W/m² | - |
| 1778185369 | 19.44° C | 42% | 1011.7 hPa | 0 mm | - | 994 W/m² | - |
| 1778185064 | 19.44° C | 41% | 1011.7 hPa | 0 mm | - | 255 W/m² | - |
| 1778184761 | 18.33° C | 44% | 1011.9 hPa | 0 mm | - | 991 W/m² | - |
| 1778184457 | 19.44° C | 41% | 1011.9 hPa | 0 mm | - | 209 W/m² | - |
| 1778184154 | 19.44° C | 44% | 1012 hPa | 0 mm | - | 459 W/m² | - |
| 1778183850 | 19.44° C | 40% | 1011.9 hPa | 0 mm | - | 989 W/m² | - |
| 1778183547 | 18.89° C | 41% | 1011.9 hPa | 0 mm | - | 489 W/m² | - |
* Rain latest hour (hover to see other rain measurements)
** Current wind speed in m/s (hover to see current wind gust speed)